createdAt,value
2023-02-14T00:02:28.796Z,66.72
2023-02-14T00:04:58.133Z,66.62
2023-02-14T00:07:27.083Z,66.47
2023-02-14T00:09:55.932Z,66.31
2023-02-14T00:12:24.898Z,66.12
2023-02-14T00:15:12.191Z,66.41
2023-02-14T00:17:41.036Z,66.60
2023-02-14T00:20:10.752Z,66.50
2023-02-14T00:22:39.578Z,66.31
2023-02-14T00:25:08.589Z,66.47
2023-02-14T00:27:37.578Z,66.43
2023-02-14T00:30:09.292Z,66.35
2023-02-14T00:32:41.167Z,66.38
2023-02-14T00:35:11.654Z,66.29
2023-02-14T00:37:42.749Z,65.92
2023-02-14T00:40:11.880Z,66.21
2023-02-14T00:42:41.289Z,66.26
2023-02-14T00:45:10.393Z,66.36
2023-02-14T00:47:39.325Z,66.16
2023-02-14T00:50:08.464Z,66.26
2023-02-14T00:52:37.336Z,66.35
2023-02-14T00:55:06.530Z,66.28
2023-02-14T00:57:35.452Z,66.43
2023-02-14T01:00:07.336Z,66.04
2023-02-14T01:02:36.739Z,65.94
2023-02-14T01:05:05.939Z,65.80
2023-02-14T01:07:34.760Z,65.90
2023-02-14T01:10:03.640Z,65.85
2023-02-14T01:12:32.557Z,66.00
2023-02-14T01:15:03.193Z,65.76
2023-02-14T01:17:33.443Z,66.25
2023-02-14T01:20:02.369Z,66.05
2023-02-14T01:22:37.244Z,66.11
2023-02-14T01:25:07.001Z,66.23
2023-02-14T01:27:35.866Z,66.32
2023-02-14T01:30:05.714Z,66.08
2023-02-14T01:32:35.405Z,65.78
2023-02-14T01:35:05.645Z,65.75
2023-02-14T01:37:34.285Z,65.58
2023-02-14T01:40:03.778Z,65.87
2023-02-14T01:42:35.209Z,65.75
2023-02-14T01:45:16.629Z,65.50
2023-02-14T01:47:50.854Z,65.43
2023-02-14T01:50:29.629Z,65.16
2023-02-14T01:53:05.619Z,64.92
2023-02-14T01:55:38.096Z,65.28
2023-02-14T01:58:22.472Z,65.06
2023-02-14T02:00:58.175Z,65.15
2023-02-14T02:03:38.058Z,65.08
2023-02-14T02:06:14.755Z,65.13
2023-02-14T02:08:46.829Z,65.32
2023-02-14T02:11:15.555Z,64.41
2023-02-14T02:13:44.337Z,64.82
2023-02-14T02:16:41.830Z,64.28
2023-02-14T02:19:23.135Z,64.44
2023-02-14T02:22:29.127Z,64.64
2023-02-14T02:25:19.803Z,64.94
2023-02-14T02:28:39.694Z,63.43
2023-02-14T02:31:23.894Z,63.19
2023-02-14T02:34:21.601Z,62.67
2023-02-14T02:36:59.567Z,62.25
2023-02-14T02:39:59.930Z,61.77
2023-02-14T02:42:47.378Z,60.50
2023-02-14T02:46:07.130Z,60.98
2023-02-14T02:48:44.450Z,60.59
2023-02-14T02:51:35.644Z,61.54
2023-02-14T02:54:14.081Z,61.57
2023-02-14T02:56:54.154Z,61.88
2023-02-14T02:59:34.873Z,61.76
2023-02-14T03:02:15.218Z,62.13
2023-02-14T03:05:00.231Z,62.13
2023-02-14T03:07:37.760Z,62.40
2023-02-14T03:10:18.949Z,62.32
2023-02-14T03:13:05.431Z,62.01
2023-02-14T03:15:45.908Z,62.25
2023-02-14T03:18:54.977Z,62.46
2023-02-14T03:21:35.531Z,62.17
2023-02-14T03:24:14.555Z,61.68
2023-02-14T03:26:56.989Z,61.51
2023-02-14T03:29:42.143Z,61.48
2023-02-14T03:32:42.301Z,61.58
2023-02-14T03:35:22.397Z,59.95
2023-02-14T03:38:04.741Z,59.81
2023-02-14T03:40:50.063Z,59.74
2023-02-14T03:43:31.262Z,60.33
2023-02-14T03:46:13.717Z,60.49
2023-02-14T03:48:45.052Z,60.65
2023-02-14T03:51:16.891Z,60.65
2023-02-14T03:53:48.637Z,60.83
2023-02-14T03:56:22.952Z,60.73
2023-02-14T03:58:57.080Z,60.78
2023-02-14T04:01:34.177Z,60.97
2023-02-14T04:04:06.442Z,61.13
2023-02-14T04:06:35.900Z,61.08
2023-02-14T04:09:04.761Z,61.32
2023-02-14T04:11:36.215Z,61.77
2023-02-14T04:14:05.853Z,61.38
2023-02-14T04:16:54.660Z,61.55
2023-02-14T04:19:23.625Z,61.39
2023-02-14T04:21:53.485Z,61.22
2023-02-14T04:24:22.312Z,61.40
2023-02-14T04:27:09.678Z,60.96
2023-02-14T04:29:44.670Z,60.81
2023-02-14T04:32:15.837Z,61.06
2023-02-14T04:34:44.883Z,60.60
2023-02-14T04:37:14.944Z,60.48
2023-02-14T04:39:43.823Z,60.41
2023-02-14T04:42:12.938Z,60.39
2023-02-14T04:44:41.856Z,60.06
2023-02-14T04:47:11.038Z,59.42
2023-02-14T04:49:39.825Z,58.43
2023-02-14T04:52:08.907Z,58.05
2023-02-14T04:54:37.763Z,59.14
2023-02-14T04:57:06.568Z,59.40
2023-02-14T04:59:35.349Z,59.84
2023-02-14T05:02:04.809Z,60.57
2023-02-14T05:04:33.778Z,60.81
2023-02-14T05:07:02.682Z,61.35
2023-02-14T05:09:31.471Z,61.02
2023-02-14T05:12:00.434Z,60.54
2023-02-14T05:14:29.203Z,60.25
2023-02-14T05:16:58.064Z,59.45
2023-02-14T05:19:26.863Z,59.86
2023-02-14T05:21:55.706Z,59.39
2023-02-14T05:24:24.618Z,59.56
2023-02-14T05:26:53.609Z,59.50
2023-02-14T05:29:22.610Z,59.12
2023-02-14T05:31:51.496Z,58.66
2023-02-14T05:34:21.753Z,58.13
2023-02-14T05:36:50.815Z,58.25
2023-02-14T05:39:19.837Z,57.93
2023-02-14T05:41:48.640Z,57.69
2023-02-14T05:44:17.450Z,58.24
2023-02-14T05:46:46.294Z,57.64
2023-02-14T05:49:15.099Z,56.89
2023-02-14T05:51:44.001Z,57.24
2023-02-14T05:54:12.923Z,56.06
2023-02-14T05:56:41.831Z,55.82
2023-02-14T05:59:10.616Z,55.53
2023-02-14T06:01:40.438Z,54.86
2023-02-14T06:04:09.533Z,53.63
2023-02-14T06:06:38.586Z,54.15
2023-02-14T06:09:07.509Z,53.54
2023-02-14T06:11:36.338Z,54.44
2023-02-14T06:14:05.170Z,56.42
2023-02-14T06:16:34.140Z,57.78
2023-02-14T06:19:02.997Z,57.67
2023-02-14T06:21:32.355Z,56.84
2023-02-14T06:24:01.209Z,56.25
2023-02-14T06:26:30.154Z,55.38
2023-02-14T06:29:00.131Z,56.23
2023-02-14T06:31:29.143Z,56.70
2023-02-14T06:33:58.057Z,58.11
2023-02-14T06:36:27.712Z,57.38
2023-02-14T06:38:57.291Z,56.11
2023-02-14T06:41:26.245Z,54.27
2023-02-14T06:43:55.161Z,52.64
2023-02-14T06:46:24.161Z,51.00
2023-02-14T06:48:53.106Z,52.62
2023-02-14T06:51:21.969Z,53.65
2023-02-14T06:53:50.911Z,53.84
2023-02-14T06:56:19.797Z,53.96
2023-02-14T06:58:48.790Z,54.45
2023-02-14T07:01:17.937Z,55.54
2023-02-14T07:03:47.297Z,54.90
2023-02-14T07:06:16.110Z,54.25
2023-02-14T07:08:44.921Z,53.51
2023-02-14T07:11:13.769Z,52.09
2023-02-14T07:13:44.341Z,53.64
2023-02-14T07:16:13.192Z,54.25
2023-02-14T07:18:42.033Z,53.25
2023-02-14T07:21:11.049Z,50.82
2023-02-14T07:23:40.083Z,51.40
2023-02-14T07:26:08.811Z,52.30
2023-02-14T07:28:37.625Z,52.89
2023-02-14T07:31:06.868Z,54.46
2023-02-14T07:33:35.753Z,54.72
2023-02-14T07:36:09.162Z,55.33
2023-02-14T07:38:38.426Z,56.21
2023-02-14T07:41:07.358Z,55.77
2023-02-14T07:43:36.194Z,56.00
2023-02-14T07:46:05.315Z,55.94
2023-02-14T07:48:34.640Z,55.56
2023-02-14T07:51:04.004Z,55.87
2023-02-14T07:53:33.188Z,56.07
2023-02-14T07:56:01.981Z,56.62
2023-02-14T07:58:30.818Z,56.94
2023-02-14T08:01:00.454Z,56.57
2023-02-14T08:03:29.797Z,56.09
2023-02-14T08:05:58.745Z,55.89
2023-02-14T08:08:29.738Z,56.26
2023-02-14T08:10:59.134Z,56.41
2023-02-14T08:13:28.281Z,56.67
2023-02-14T08:16:06.423Z,56.66
2023-02-14T08:18:41.344Z,56.58
2023-02-14T08:21:11.817Z,56.89
2023-02-14T08:23:40.867Z,56.07
2023-02-14T08:26:10.292Z,56.92
2023-02-14T08:28:39.074Z,56.07
2023-02-14T08:31:08.117Z,56.55
2023-02-14T08:33:37.248Z,56.40
2023-02-14T08:36:06.422Z,56.34
2023-02-14T08:38:35.409Z,57.01
2023-02-14T08:41:08.068Z,57.47
2023-02-14T08:43:37.603Z,57.68
2023-02-14T08:46:06.492Z,57.36
2023-02-14T08:48:39.125Z,57.56
2023-02-14T08:51:10.108Z,57.83
2023-02-14T08:53:40.014Z,57.92
2023-02-14T08:56:12.306Z,58.26
2023-02-14T08:58:41.236Z,58.25
2023-02-14T09:01:16.304Z,58.10
2023-02-14T09:03:45.845Z,58.28
2023-02-14T09:06:17.942Z,57.86
2023-02-14T09:08:47.272Z,58.62
2023-02-14T09:11:19.694Z,58.75
2023-02-14T09:13:49.609Z,58.95
2023-02-14T09:16:19.407Z,58.26
2023-02-14T09:18:49.571Z,58.52
2023-02-14T09:21:21.167Z,58.41
2023-02-14T09:23:49.920Z,58.59
2023-02-14T09:26:19.681Z,59.08
2023-02-14T09:28:48.815Z,58.71
2023-02-14T09:31:21.542Z,59.04
2023-02-14T09:33:51.446Z,58.80
2023-02-14T09:36:21.333Z,59.17
2023-02-14T09:38:50.370Z,59.31
2023-02-14T09:41:25.135Z,59.85
2023-02-14T09:44:08.594Z,59.85
2023-02-14T09:46:44.822Z,59.77
2023-02-14T09:49:20.126Z,60.06
2023-02-14T09:51:52.415Z,60.21
2023-02-14T09:54:28.892Z,60.18
2023-02-14T09:57:02.899Z,60.70
2023-02-14T09:59:45.157Z,60.29
2023-02-14T10:02:40.514Z,60.63
2023-02-14T10:05:36.700Z,61.08
2023-02-14T10:08:34.548Z,61.04
2023-02-14T10:11:32.879Z,61.46
2023-02-14T10:14:23.521Z,60.99
2023-02-14T10:17:15.356Z,61.17
2023-02-14T10:20:01.366Z,61.01
2023-02-14T10:22:47.125Z,61.57
2023-02-14T10:25:27.012Z,61.74
2023-02-14T10:27:59.180Z,61.17
2023-02-14T10:30:28.310Z,61.33
2023-02-14T10:33:07.364Z,61.54
2023-02-14T10:35:39.397Z,61.38
2023-02-14T10:38:34.423Z,62.06
2023-02-14T10:41:28.491Z,61.69
2023-02-14T10:44:15.986Z,61.79
2023-02-14T10:47:17.049Z,62.17
2023-02-14T10:50:06.177Z,61.83
2023-02-14T10:52:59.923Z,62.36
2023-02-14T10:55:48.637Z,61.98
2023-02-14T10:58:20.830Z,61.98
2023-02-14T11:01:00.527Z,62.32
2023-02-14T11:03:30.870Z,62.07
2023-02-14T11:05:59.999Z,62.62
2023-02-14T11:08:35.421Z,62.44
2023-02-14T11:11:16.218Z,63.18
2023-02-14T11:13:45.773Z,63.21
2023-02-14T11:16:40.584Z,63.15
2023-02-14T11:19:15.504Z,63.13
2023-02-14T11:21:47.386Z,63.35
2023-02-14T11:24:36.460Z,64.05
2023-02-14T11:27:11.216Z,63.61
2023-02-14T11:29:39.955Z,63.52
2023-02-14T11:32:24.246Z,63.68
2023-02-14T11:34:55.668Z,64.03
2023-02-14T11:37:24.456Z,63.87
2023-02-14T11:39:58.730Z,63.80
2023-02-14T11:42:45.323Z,64.27
2023-02-14T11:45:42.942Z,64.33
2023-02-14T11:48:38.277Z,64.55
2023-02-14T11:51:07.816Z,64.65
2023-02-14T11:54:01.253Z,64.39
2023-02-14T11:56:56.108Z,64.35
2023-02-14T11:59:37.993Z,64.12
2023-02-14T12:02:29.392Z,64.65
2023-02-14T12:05:06.637Z,64.45
2023-02-14T12:07:38.814Z,64.62
2023-02-14T12:10:16.322Z,64.74
2023-02-14T12:13:00.742Z,64.61
2023-02-14T12:15:56.636Z,64.79
2023-02-14T12:19:02.680Z,64.78
2023-02-14T12:21:56.768Z,65.06
2023-02-14T12:24:25.591Z,64.47
2023-02-14T12:27:04.274Z,64.34
2023-02-14T12:29:44.074Z,64.82
2023-02-14T12:32:32.995Z,65.04
2023-02-14T12:35:16.713Z,64.98
2023-02-14T12:37:50.796Z,64.59
2023-02-14T12:41:18.422Z,64.54
2023-02-14T12:43:54.099Z,64.56
2023-02-14T12:46:37.956Z,65.16
2023-02-14T12:49:12.520Z,64.77
2023-02-14T12:51:57.996Z,64.84
2023-02-14T12:54:50.242Z,65.04
2023-02-14T12:57:51.941Z,65.14
2023-02-14T13:00:47.824Z,64.90
2023-02-14T13:03:40.516Z,65.36
2023-02-14T13:06:28.622Z,65.40
2023-02-14T13:09:08.931Z,65.13
2023-02-14T13:11:59.034Z,65.44
2023-02-14T13:14:47.197Z,65.73
2023-02-14T13:17:20.554Z,65.58
2023-02-14T13:20:18.391Z,65.59
2023-02-14T13:22:49.559Z,65.44
2023-02-14T13:25:34.462Z,65.18
2023-02-14T13:28:12.161Z,65.50
2023-02-14T13:30:43.798Z,65.64
2023-02-14T13:33:27.475Z,65.61
2023-02-14T13:36:01.003Z,65.17
2023-02-14T13:38:32.027Z,65.32
2023-02-14T13:41:03.321Z,65.19
2023-02-14T13:43:52.098Z,65.52
2023-02-14T13:46:35.073Z,65.33
2023-02-14T13:49:25.376Z,65.39
2023-02-14T13:51:58.418Z,65.47
2023-02-14T13:54:47.801Z,65.49
2023-02-14T13:57:37.166Z,65.14
2023-02-14T14:00:21.899Z,65.74
2023-02-14T14:02:53.411Z,65.61
2023-02-14T14:05:31.653Z,66.01
2023-02-14T14:08:22.879Z,65.90
2023-02-14T14:11:03.282Z,65.99
2023-02-14T14:13:41.508Z,65.96
2023-02-14T14:16:29.132Z,66.40
2023-02-14T14:18:58.100Z,66.36
2023-02-14T14:21:26.822Z,66.66
2023-02-14T14:24:31.305Z,66.51
2023-02-14T14:27:30.028Z,66.66
2023-02-14T14:30:08.284Z,66.35
2023-02-14T14:32:39.560Z,66.63
2023-02-14T14:35:28.801Z,66.50
2023-02-14T14:38:00.408Z,66.78
2023-02-14T14:40:38.646Z,66.56
2023-02-14T14:43:14.091Z,66.87
2023-02-14T14:45:47.645Z,66.82
2023-02-14T14:48:29.578Z,66.64
2023-02-14T14:50:59.695Z,67.01
2023-02-14T14:53:49.473Z,66.63
2023-02-14T14:56:29.974Z,66.44
2023-02-14T14:59:16.248Z,66.64
2023-02-14T15:01:46.707Z,66.97
2023-02-14T15:04:18.039Z,66.46
2023-02-14T15:06:48.257Z,66.83
2023-02-14T15:09:23.963Z,66.32
2023-02-14T15:12:12.643Z,66.57
2023-02-14T15:14:44.473Z,66.49
2023-02-14T15:17:22.787Z,66.72
2023-02-14T15:19:58.564Z,66.75
2023-02-14T15:22:45.451Z,66.62
2023-02-14T15:25:26.883Z,66.87
2023-02-14T15:27:56.017Z,66.89
2023-02-14T15:30:38.507Z,66.83
2023-02-14T15:33:08.640Z,66.76
2023-02-14T15:35:42.871Z,66.86
2023-02-14T15:38:14.781Z,66.54
2023-02-14T15:40:44.807Z,66.85
2023-02-14T15:43:19.689Z,67.25
2023-02-14T15:45:53.944Z,66.93
2023-02-14T15:48:31.407Z,67.03
2023-02-14T15:51:02.644Z,66.79
2023-02-14T15:53:42.643Z,67.56
2023-02-14T15:56:27.686Z,67.03
2023-02-14T15:59:08.084Z,67.15
2023-02-14T16:01:39.358Z,67.04
2023-02-14T16:04:09.279Z,67.23
2023-02-14T16:06:44.904Z,67.47
2023-02-14T16:09:29.311Z,67.52
2023-02-14T16:11:58.511Z,67.52
2023-02-14T16:14:36.922Z,67.21
2023-02-14T16:17:07.507Z,67.54
2023-02-14T16:19:42.102Z,67.31
2023-02-14T16:22:25.577Z,67.54
2023-02-14T16:24:54.442Z,67.40
2023-02-14T16:27:23.387Z,67.40
2023-02-14T16:29:52.280Z,67.22
2023-02-14T16:32:25.158Z,67.23
2023-02-14T16:34:55.075Z,67.72
2023-02-14T16:37:26.999Z,67.44
2023-02-14T16:39:58.362Z,67.39
2023-02-14T16:42:27.267Z,67.82
2023-02-14T16:44:56.144Z,67.96
2023-02-14T16:47:28.311Z,67.90
2023-02-14T16:49:57.252Z,67.64
2023-02-14T16:52:28.725Z,67.47
2023-02-14T16:54:58.489Z,67.85
2023-02-14T16:57:41.787Z,67.76
2023-02-14T17:00:12.531Z,67.82
2023-02-14T17:02:44.267Z,67.62
2023-02-14T17:05:13.610Z,67.99
2023-02-14T17:07:44.336Z,67.99
2023-02-14T17:10:18.946Z,67.98
2023-02-14T17:12:50.057Z,68.25
2023-02-14T17:15:22.116Z,68.08
2023-02-14T17:17:56.203Z,67.78
2023-02-14T17:20:25.080Z,67.98
2023-02-14T17:22:56.052Z,67.91
2023-02-14T17:25:24.816Z,68.21
2023-02-14T17:27:53.619Z,68.13
2023-02-14T17:30:22.847Z,67.97
2023-02-14T17:32:51.796Z,68.03
2023-02-14T17:35:21.976Z,68.04
2023-02-14T17:37:50.937Z,67.86
2023-02-14T17:40:19.956Z,67.73
2023-02-14T17:42:48.829Z,67.91
2023-02-14T17:45:17.773Z,67.81
2023-02-14T17:47:46.799Z,67.93
2023-02-14T17:50:17.139Z,68.07
2023-02-14T17:52:46.206Z,68.15
2023-02-14T17:55:16.358Z,68.03
2023-02-14T17:57:45.115Z,68.03
2023-02-14T18:00:17.072Z,68.17
2023-02-14T18:02:46.341Z,68.00
2023-02-14T18:05:15.357Z,68.21
2023-02-14T18:07:44.409Z,68.23
2023-02-14T18:10:13.346Z,68.50
2023-02-14T18:12:42.215Z,68.15
2023-02-14T18:15:11.398Z,68.29
2023-02-14T18:17:42.178Z,68.27
2023-02-14T18:20:11.576Z,68.52
2023-02-14T18:22:40.397Z,68.46
2023-02-14T18:25:09.405Z,68.33
2023-02-14T18:27:39.958Z,68.42
2023-02-14T18:30:09.658Z,68.36
2023-02-14T18:32:38.480Z,68.66
2023-02-14T18:35:07.605Z,68.60
2023-02-14T18:37:36.568Z,68.39
2023-02-14T18:40:05.845Z,68.24
2023-02-14T18:42:34.677Z,68.33
2023-02-14T18:45:03.644Z,68.40
2023-02-14T18:47:33.536Z,68.38
2023-02-14T18:50:02.430Z,68.63
2023-02-14T18:52:32.415Z,68.61
2023-02-14T18:55:01.454Z,68.61
2023-02-14T18:57:32.120Z,68.51
2023-02-14T19:00:01.380Z,68.60
2023-02-14T19:02:34.522Z,68.25
2023-02-14T19:05:04.984Z,68.26
2023-02-14T19:07:34.402Z,68.27
2023-02-14T19:10:04.895Z,68.38
2023-02-14T19:12:36.998Z,68.20
2023-02-14T19:15:06.671Z,68.07
2023-02-14T19:17:35.906Z,68.19
2023-02-14T19:20:09.101Z,68.24
2023-02-14T19:22:39.580Z,68.23
2023-02-14T19:25:09.350Z,68.19
2023-02-14T19:27:38.411Z,68.20
2023-02-14T19:30:08.099Z,68.21
2023-02-14T19:32:36.933Z,67.95
2023-02-14T19:35:06.238Z,68.39
2023-02-14T19:37:35.072Z,68.58
2023-02-14T19:40:04.124Z,68.86
2023-02-14T19:42:33.087Z,68.63
2023-02-14T19:45:01.913Z,68.64
2023-02-14T19:47:46.265Z,68.75
2023-02-14T19:50:16.050Z,68.57
2023-02-14T19:52:45.203Z,68.84
2023-02-14T19:55:22.894Z,68.77
2023-02-14T19:57:51.779Z,68.77
2023-02-14T20:00:21.804Z,69.01
2023-02-14T20:02:51.779Z,68.82
2023-02-14T20:05:21.494Z,68.52
2023-02-14T20:07:52.497Z,68.67
2023-02-14T20:10:21.643Z,68.66
2023-02-14T20:12:50.487Z,68.78
2023-02-14T20:15:19.439Z,68.65
2023-02-14T20:17:48.273Z,68.74
2023-02-14T20:20:17.229Z,68.58
2023-02-14T20:22:46.092Z,69.08
2023-02-14T20:25:14.933Z,68.63
2023-02-14T20:27:43.921Z,68.88
2023-02-14T20:30:13.673Z,68.85
2023-02-14T20:32:42.770Z,68.73
2023-02-14T20:35:11.564Z,68.64
2023-02-14T20:37:40.616Z,68.60
2023-02-14T20:40:11.450Z,68.77
2023-02-14T20:42:41.147Z,68.74
2023-02-14T20:45:10.013Z,68.45
2023-02-14T20:47:39.053Z,68.82
2023-02-14T20:50:08.517Z,68.73
2023-02-14T20:52:37.780Z,68.67
2023-02-14T20:55:07.052Z,68.80
2023-02-14T20:57:35.891Z,68.87
2023-02-14T21:00:06.753Z,68.64
2023-02-14T21:02:35.906Z,68.88
2023-02-14T21:05:04.914Z,68.76
2023-02-14T21:07:33.885Z,68.74
2023-02-14T21:10:02.820Z,68.84
2023-02-14T21:12:32.286Z,69.09
2023-02-14T21:15:01.126Z,68.95
2023-02-14T21:17:31.479Z,68.95
2023-02-14T21:20:00.293Z,68.83
2023-02-14T21:22:29.096Z,69.30
2023-02-14T21:24:57.901Z,69.03
2023-02-14T21:27:26.700Z,68.98
2023-02-14T21:29:55.695Z,68.76
2023-02-14T21:32:24.535Z,68.99
2023-02-14T21:34:53.388Z,69.13
2023-02-14T21:37:23.291Z,69.26
2023-02-14T21:39:52.157Z,69.37
2023-02-14T21:42:21.798Z,69.27
2023-02-14T21:45:09.256Z,69.10
2023-02-14T21:47:40.393Z,68.98
2023-02-14T21:50:29.176Z,69.19
2023-02-14T21:52:58.185Z,69.16
2023-02-14T21:55:26.975Z,69.19
2023-02-14T21:57:55.748Z,69.22
2023-02-14T22:00:25.211Z,68.88
2023-02-14T22:02:54.568Z,69.24
2023-02-14T22:05:23.445Z,69.40
2023-02-14T22:07:52.334Z,69.30
2023-02-14T22:10:21.228Z,69.06
2023-02-14T22:12:50.221Z,69.18
2023-02-14T22:15:19.075Z,69.21
2023-02-14T22:17:47.887Z,69.25
2023-02-14T22:20:17.334Z,69.03
2023-02-14T22:22:46.149Z,69.12
2023-02-14T22:25:15.978Z,69.04
2023-02-14T22:27:44.807Z,69.05
2023-02-14T22:30:13.910Z,69.14
2023-02-14T22:32:43.245Z,69.24
2023-02-14T22:35:12.089Z,69.47
2023-02-14T22:37:40.918Z,69.19
2023-02-14T22:40:10.073Z,69.13
2023-02-14T22:42:39.128Z,69.43
2023-02-14T22:45:08.403Z,69.28
2023-02-14T22:47:37.386Z,69.51
2023-02-14T22:50:06.847Z,69.61
2023-02-14T22:52:36.351Z,69.24
2023-02-14T22:55:05.559Z,69.51
2023-02-14T22:57:34.360Z,69.28
2023-02-14T23:00:03.285Z,69.30
2023-02-14T23:02:33.574Z,69.21
2023-02-14T23:05:02.405Z,69.12
2023-02-14T23:07:32.464Z,69.29
2023-02-14T23:10:01.460Z,69.29
2023-02-14T23:12:50.703Z,69.38
2023-02-14T23:15:37.997Z,69.62
2023-02-14T23:18:25.408Z,69.30
2023-02-14T23:21:26.667Z,69.23
2023-02-14T23:23:55.470Z,69.47
2023-02-14T23:26:24.283Z,69.50
2023-02-14T23:28:53.178Z,69.41
2023-02-14T23:31:22.106Z,69.36
2023-02-14T23:33:52.737Z,69.69
2023-02-14T23:36:21.580Z,69.67
2023-02-14T23:38:50.369Z,69.46
2023-02-14T23:41:37.789Z,69.53
2023-02-14T23:44:06.655Z,69.67
2023-02-14T23:46:35.373Z,69.57
2023-02-14T23:49:04.289Z,69.47
2023-02-14T23:51:34.542Z,69.54
2023-02-14T23:54:04.177Z,69.43
2023-02-14T23:56:33.893Z,69.39
2023-02-14T23:59:02.777Z,69.54
